createdAt,value
2019-02-22T00:04:33.444Z,20.59
2019-02-22T00:10:28.443Z,20.8
2019-02-22T00:16:23.439Z,21.1
2019-02-22T00:22:18.462Z,22.16
2019-02-22T00:28:13.452Z,22.39
2019-02-22T00:34:08.467Z,22.39
2019-02-22T00:40:03.503Z,22.75
2019-02-22T00:45:58.468Z,22.37
2019-02-22T00:51:53.486Z,21.72
2019-02-22T00:57:48.467Z,21.37
2019-02-22T01:03:43.535Z,22.66
2019-02-22T01:09:38.541Z,22.06
2019-02-22T01:15:33.513Z,22.13
2019-02-22T01:21:28.496Z,22.31
2019-02-22T01:27:23.555Z,22.19
2019-02-22T01:33:18.503Z,20.79
2019-02-22T01:39:13.554Z,21.22
2019-02-22T01:45:08.539Z,21.29
2019-02-22T01:51:03.539Z,20.89
2019-02-22T01:56:58.552Z,22.47
2019-02-22T02:02:53.524Z,21.4
2019-02-22T02:08:48.571Z,21.21
2019-02-22T02:14:43.557Z,21.9
2019-02-22T02:20:38.545Z,21.34
2019-02-22T02:26:33.547Z,21
2019-02-22T02:32:28.583Z,21.35
2019-02-22T02:38:23.591Z,28.07
2019-02-22T02:44:18.599Z,29.03
2019-02-22T02:50:13.561Z,30.78
2019-02-22T02:56:08.584Z,31.29
2019-02-22T03:02:03.663Z,30.49
2019-02-22T03:07:58.618Z,32.33
2019-02-22T03:13:53.651Z,32.48
2019-02-22T03:19:48.610Z,33.4
2019-02-22T03:25:43.616Z,32.36
2019-02-22T03:31:38.663Z,32.19
2019-02-22T03:37:33.608Z,34.67
2019-02-22T03:43:28.669Z,32.98
2019-02-22T03:49:23.648Z,33.15
2019-02-22T03:55:18.636Z,30.96
2019-02-22T04:01:13.728Z,32.17
2019-02-22T04:07:08.655Z,23.31
2019-02-22T04:13:03.649Z,23.06
2019-02-22T04:18:58.670Z,23.57
2019-02-22T04:24:53.658Z,22.65
2019-02-22T04:30:48.709Z,22.77
2019-02-22T04:36:43.672Z,22.61
2019-02-22T04:42:38.652Z,25.01
2019-02-22T04:48:33.676Z,25.51
2019-02-22T04:54:28.765Z,26.2
2019-02-22T05:00:23.712Z,25.43
2019-02-22T05:06:18.691Z,24.54
2019-02-22T05:12:13.715Z,21.82
2019-02-22T05:18:08.720Z,20.56
2019-02-22T05:24:03.755Z,21.17
2019-02-22T05:29:58.718Z,21.37
2019-02-22T05:35:53.770Z,21.17
2019-02-22T05:41:48.736Z,21.41
2019-02-22T05:47:43.730Z,21.53
2019-02-22T05:53:38.746Z,22.04
2019-02-22T05:59:33.753Z,21
2019-02-22T06:05:28.772Z,20.04
2019-02-22T06:11:23.735Z,20.31
2019-02-22T06:17:18.772Z,21.03
2019-02-22T06:23:13.770Z,20.84
2019-02-22T06:29:08.764Z,20.27
2019-02-22T06:35:03.767Z,20.67
2019-02-22T06:40:58.765Z,21.6
2019-02-22T06:46:53.816Z,21.37
2019-02-22T06:52:48.789Z,21.03
2019-02-22T06:58:43.819Z,21.26
2019-02-22T07:04:38.806Z,22.35
2019-02-22T07:10:33.796Z,19.76
2019-02-22T07:16:28.813Z,20.66
2019-02-22T07:22:23.817Z,21.39
2019-02-22T07:28:18.818Z,19.99
2019-02-22T07:34:13.809Z,20.32
2019-02-22T07:40:08.826Z,22.44
2019-02-22T07:46:03.824Z,29.99
2019-02-22T07:51:58.838Z,32.05
2019-02-22T07:57:53.854Z,36.05
2019-02-22T08:03:48.891Z,34.4
2019-02-22T08:09:43.878Z,34.39
2019-02-22T08:15:38.861Z,33.64
2019-02-22T08:21:33.871Z,31.25
2019-02-22T08:27:28.887Z,31.54
2019-02-22T08:33:23.970Z,31.33
2019-02-22T08:39:18.856Z,32.53
2019-02-22T08:45:13.938Z,28.66
2019-02-22T08:51:08.876Z,30.6
2019-02-22T08:57:03.933Z,31.36
2019-02-22T09:02:58.937Z,31.75
2019-02-22T09:08:53.947Z,31.47
2019-02-22T09:14:48.933Z,29.07
2019-02-22T09:20:43.923Z,23.36
2019-02-22T09:26:38.922Z,18.86
2019-02-22T09:32:33.939Z,17.26
2019-02-22T09:38:28.922Z,17.24
2019-02-22T09:44:23.982Z,17.82
2019-02-22T09:50:18.938Z,17.78
2019-02-22T09:56:13.940Z,19.19
2019-02-22T10:02:08.956Z,17.18
2019-02-22T10:08:03.961Z,16.98
2019-02-22T10:14:06.472Z,17.88
2019-02-22T10:19:53.966Z,18.85
2019-02-22T10:25:48.959Z,19.25
2019-02-22T10:31:43.966Z,19.79
2019-02-22T10:37:39.012Z,19.72
2019-02-22T10:43:33.998Z,19.13
2019-02-22T10:49:29.076Z,18.58
2019-02-22T10:55:23.997Z,18.47
2019-02-22T11:01:19.011Z,19.55
2019-02-22T11:07:14.009Z,18.13
2019-02-22T11:13:08.999Z,18.49
2019-02-22T11:19:04.020Z,18.14
2019-02-22T11:24:59.012Z,18.4
2019-02-22T11:30:54.019Z,18.12
2019-02-22T11:36:49.063Z,17.02
2019-02-22T11:42:44.085Z,18.32
2019-02-22T11:48:39.070Z,18.26
2019-02-22T11:54:34.093Z,16.03
2019-02-22T12:00:29.065Z,16.25
2019-02-22T12:06:24.057Z,16.86
2019-02-22T12:12:19.069Z,16.62
2019-02-22T12:18:14.073Z,17.78
2019-02-22T12:24:09.073Z,17.02
2019-02-22T12:30:04.106Z,16.41
2019-02-22T12:35:59.070Z,18.12
2019-02-22T12:41:54.109Z,17.03
2019-02-22T12:47:49.101Z,17.2
2019-02-22T12:53:44.107Z,15.91
2019-02-22T12:59:39.120Z,16.97
2019-02-22T13:05:34.141Z,15.79
2019-02-22T13:11:29.124Z,15.56
2019-02-22T13:17:30.651Z,16.53
2019-02-22T13:23:19.140Z,15.62
2019-02-22T13:29:14.170Z,16.77
2019-02-22T13:35:10.918Z,15.13
2019-02-22T13:41:04.148Z,15.24
2019-02-22T13:46:59.161Z,18.07
2019-02-22T13:52:54.224Z,18.08
2019-02-22T13:58:49.178Z,17.56
2019-02-22T14:04:44.191Z,16.05
2019-02-22T14:10:39.225Z,17.82
2019-02-22T14:16:34.170Z,16.78
2019-02-22T14:22:29.208Z,17.44
2019-02-22T14:28:24.188Z,17.2
2019-02-22T14:34:19.195Z,16.43
2019-02-22T14:40:14.215Z,17.03
2019-02-22T14:46:09.255Z,17.25
2019-02-22T14:52:04.225Z,18.77
2019-02-22T14:57:59.269Z,16.08
2019-02-22T15:03:54.253Z,16.3
2019-02-22T15:09:49.268Z,19.18
2019-02-22T15:15:44.253Z,18.32
2019-02-22T15:21:39.308Z,17.13
2019-02-22T15:27:36.224Z,15.42
2019-02-22T15:33:29.300Z,16.27
2019-02-22T15:39:24.306Z,15.74
2019-02-22T15:45:19.301Z,15.91
2019-02-22T15:51:14.293Z,13.71
2019-02-22T15:57:09.367Z,14.21
2019-02-22T16:03:04.292Z,13.82
2019-02-22T16:08:59.353Z,15.16
2019-02-22T16:14:54.292Z,14.8
2019-02-22T16:20:49.353Z,14.22
2019-02-22T16:26:44.315Z,13.25
2019-02-22T16:32:39.306Z,13.9
2019-02-22T16:38:34.317Z,13.91
2019-02-22T16:44:29.324Z,14.98
2019-02-22T16:50:24.340Z,18.95
2019-02-22T16:56:19.338Z,20.23
2019-02-22T17:02:14.355Z,19.43
2019-02-22T17:08:09.347Z,17.29
2019-02-22T17:14:04.375Z,17.87
2019-02-22T17:19:59.388Z,21.15
2019-02-22T17:25:54.372Z,20.3
2019-02-22T17:31:49.360Z,19.01
2019-02-22T17:37:44.397Z,22.13
2019-02-22T17:43:39.397Z,21.73
2019-02-22T17:49:34.401Z,21.97
2019-02-22T17:55:29.394Z,22.8
2019-02-22T18:01:24.437Z,22.79
2019-02-22T18:07:19.427Z,22.15
2019-02-22T18:13:15.867Z,24.05
2019-02-22T18:19:09.432Z,22.01
2019-02-22T18:25:04.489Z,22.92
2019-02-22T18:30:59.448Z,23.41
2019-02-22T18:36:54.521Z,23.6
2019-02-22T18:42:49.479Z,25.48
2019-02-22T18:48:44.478Z,22.01
2019-02-22T18:54:39.480Z,23.02
2019-02-22T19:00:34.524Z,23.17
2019-02-22T19:06:29.579Z,23.43
2019-02-22T19:12:24.459Z,23.24
2019-02-22T19:18:19.496Z,23.57
2019-02-22T19:24:14.483Z,26.2
2019-02-22T19:30:09.501Z,25.34
2019-02-22T19:36:04.482Z,23.78
2019-02-22T19:41:59.486Z,24.39
2019-02-22T19:47:54.499Z,23.47
2019-02-22T19:53:49.583Z,24.56
2019-02-22T19:59:44.555Z,23.66
2019-02-22T20:05:39.525Z,21.94
2019-02-22T20:11:34.537Z,21.04
2019-02-22T20:17:29.519Z,21.5
2019-02-22T20:23:26.319Z,20.67
2019-02-22T20:29:19.517Z,20.17
2019-02-22T20:35:14.545Z,21.82
2019-02-22T20:41:10.098Z,20.3
2019-02-22T20:47:04.575Z,20.95
2019-02-22T20:52:59.590Z,19.01
2019-02-22T20:58:54.589Z,17.97
2019-02-22T21:04:49.550Z,16.99
2019-02-22T21:10:44.568Z,17.2
2019-02-22T21:16:39.584Z,15.96
2019-02-22T21:22:34.595Z,14.54
2019-02-22T21:28:29.592Z,15.47
2019-02-22T21:34:24.591Z,14.08
2019-02-22T21:40:19.589Z,14.73
2019-02-22T21:46:14.621Z,15.29
2019-02-22T21:52:09.617Z,15.13
2019-02-22T21:58:04.625Z,14.39
2019-02-22T22:03:59.655Z,14.49
2019-02-22T22:09:54.695Z,14.55
2019-02-22T22:15:49.653Z,14.66
2019-02-22T22:21:45.312Z,15.51
2019-02-22T22:27:39.656Z,16.54
2019-02-22T22:33:34.650Z,16.25
2019-02-22T22:39:29.668Z,15.31
2019-02-22T22:45:24.725Z,16.08
2019-02-22T22:51:19.667Z,15.37
2019-02-22T22:57:14.659Z,15.12
2019-02-22T23:03:09.676Z,16.51
2019-02-22T23:09:04.681Z,15.7
2019-02-22T23:14:59.674Z,15.22
2019-02-22T23:20:54.694Z,14.55
2019-02-22T23:26:49.685Z,15.2
2019-02-22T23:32:44.715Z,14.3
2019-02-22T23:38:39.758Z,14.36
2019-02-22T23:44:34.722Z,14.68
2019-02-22T23:50:29.727Z,15.7
2019-02-22T23:56:24.737Z,13.57
